createdAt,value
2022-08-11T00:00:33.797Z,53.07
2022-08-11T00:01:08.248Z,53.02
2022-08-11T00:01:45.702Z,53.24
2022-08-11T00:02:34.196Z,53.58
2022-08-11T00:03:08.526Z,53.75
2022-08-11T00:03:55.352Z,53.63
2022-08-11T00:04:34.559Z,53.32
2022-08-11T00:05:12.566Z,53.68
2022-08-11T00:05:51.976Z,53.54
2022-08-11T00:06:28.718Z,53.80
2022-08-11T00:07:02.981Z,53.85
2022-08-11T00:07:42.343Z,54.01
2022-08-11T00:08:25.683Z,54.04
2022-08-11T00:08:58.887Z,54.17
2022-08-11T00:09:38.927Z,54.26
2022-08-11T00:10:17.504Z,54.20
2022-08-11T00:10:59.004Z,54.23
2022-08-11T00:11:39.344Z,54.30
2022-08-11T00:12:16.964Z,54.54
2022-08-11T00:12:55.648Z,54.64
2022-08-11T00:13:39.781Z,54.57
2022-08-11T00:14:23.546Z,54.30
2022-08-11T00:15:01.075Z,54.11
2022-08-11T00:15:44.735Z,54.23
2022-08-11T00:16:23.044Z,54.05
2022-08-11T00:17:02.546Z,54.03
2022-08-11T00:17:35.348Z,54.37
2022-08-11T00:18:08.058Z,54.32
2022-08-11T00:18:59.081Z,54.58
2022-08-11T00:20:13.344Z,54.80
2022-08-11T00:20:35.052Z,54.86
2022-08-11T00:21:07.433Z,55.25
2022-08-11T00:22:05.082Z,55.80
2022-08-11T00:22:38.997Z,55.36
2022-08-11T00:23:17.318Z,55.79
2022-08-11T00:23:59.952Z,55.78
2022-08-11T00:24:51.650Z,55.78
2022-08-11T00:25:26.785Z,55.85
2022-08-11T00:25:59.451Z,56.10
2022-08-11T00:26:32.020Z,55.52
2022-08-11T00:27:05.069Z,55.63
2022-08-11T00:27:39.762Z,56.00
2022-08-11T00:28:31.336Z,56.45
2022-08-11T00:29:11.331Z,56.09
2022-08-11T00:29:53.837Z,56.39
2022-08-11T00:30:25.471Z,56.44
2022-08-11T00:31:01.472Z,56.74
2022-08-11T00:31:37.138Z,57.47
2022-08-11T00:32:15.268Z,57.33
2022-08-11T00:32:56.085Z,57.36
2022-08-11T00:33:46.132Z,57.82
2022-08-11T00:34:25.122Z,57.61
2022-08-11T00:35:56.229Z,57.94
2022-08-11T00:35:57.801Z,57.77
2022-08-11T00:36:44.028Z,57.73
2022-08-11T00:37:22.842Z,58.02
2022-08-11T00:37:56.081Z,58.11
2022-08-11T00:38:33.168Z,58.20
2022-08-11T00:39:06.972Z,58.34
2022-08-11T00:39:52.043Z,58.21
2022-08-11T00:40:33.758Z,58.15
2022-08-11T00:41:39.381Z,58.21
2022-08-11T00:42:16.535Z,58.29
2022-08-11T00:43:25.512Z,58.50
2022-08-11T00:44:02.956Z,58.77
2022-08-11T00:44:52.777Z,58.88
2022-08-11T00:45:33.415Z,59.15
2022-08-11T00:46:18.329Z,59.55
2022-08-11T00:47:10.709Z,59.32
2022-08-11T00:47:47.949Z,59.19
2022-08-11T00:48:32.218Z,59.28
2022-08-11T00:49:34.537Z,59.84
2022-08-11T00:51:02.677Z,59.99
2022-08-11T00:52:02.253Z,59.96
2022-08-11T00:53:02.192Z,59.76
2022-08-11T00:54:27.346Z,59.98
2022-08-11T00:55:34.037Z,60.08
2022-08-11T00:56:17.874Z,60.06
2022-08-11T00:57:46.221Z,60.12
2022-08-11T00:58:22.663Z,60.05
2022-08-11T00:59:34.518Z,59.92
2022-08-11T01:00:15.867Z,60.02
2022-08-11T01:01:09.107Z,60.51
2022-08-11T01:02:09.731Z,60.46
2022-08-11T01:02:50.017Z,60.15
2022-08-11T01:03:43.029Z,60.48
2022-08-11T01:04:20.681Z,61.15
2022-08-11T01:05:23.089Z,60.62
2022-08-11T01:06:13.053Z,60.78
2022-08-11T01:06:50.101Z,60.78
2022-08-11T01:09:25.305Z,60.19
2022-08-11T01:10:20.362Z,60.40
2022-08-11T01:12:41.249Z,59.96
2022-08-11T01:13:21.905Z,60.20
2022-08-11T01:14:26.906Z,60.43
2022-08-11T01:15:15.429Z,60.56
2022-08-11T01:20:46.667Z,59.85
2022-08-11T01:21:38.134Z,59.83
2022-08-11T01:22:18.588Z,59.89
2022-08-11T01:23:37.281Z,59.83
2022-08-11T01:24:37.439Z,60.40
2022-08-11T01:25:56.839Z,60.12
2022-08-11T01:27:19.412Z,60.38
2022-08-11T01:28:09.329Z,60.76
2022-08-11T01:29:04.987Z,60.91
2022-08-11T01:30:07.301Z,60.66
2022-08-11T01:31:09.913Z,61.30
2022-08-11T01:31:44.177Z,61.29
2022-08-11T01:32:41.839Z,61.35
2022-08-11T01:33:13.341Z,61.68
2022-08-11T01:33:59.532Z,61.48
2022-08-11T01:34:55.856Z,61.50
2022-08-11T01:35:49.130Z,61.38
2022-08-11T01:36:33.511Z,61.42
2022-08-11T01:37:32.526Z,61.30
2022-08-11T01:38:28.757Z,61.24
2022-08-11T01:39:41.637Z,61.33
2022-08-11T01:40:35.065Z,61.02
2022-08-11T01:42:02.269Z,60.86
2022-08-11T01:43:20.120Z,61.06
2022-08-11T01:44:13.242Z,61.03
2022-08-11T01:45:29.212Z,60.90
2022-08-11T01:46:30.053Z,61.13
2022-08-11T01:47:07.296Z,61.20
2022-08-11T01:48:03.789Z,61.20
2022-08-11T01:48:59.059Z,61.13
2022-08-11T01:50:08.813Z,60.98
2022-08-11T01:50:54.365Z,61.10
2022-08-11T01:51:45.834Z,61.42
2022-08-11T01:52:30.155Z,61.59
2022-08-11T01:53:27.364Z,62.23
2022-08-11T01:54:06.625Z,62.28
2022-08-11T01:55:08.655Z,62.37
2022-08-11T01:56:10.205Z,62.23
2022-08-11T01:57:27.627Z,62.22
2022-08-11T01:58:39.799Z,62.63
2022-08-11T01:59:15.507Z,63.01
2022-08-11T01:59:52.216Z,62.51
2022-08-11T02:01:22.554Z,62.59
2022-08-11T02:02:43.469Z,62.16
2022-08-11T02:03:36.581Z,61.80
2022-08-11T02:04:33.732Z,61.79
2022-08-11T02:05:39.282Z,61.68
2022-08-11T02:06:57.039Z,61.59
2022-08-11T02:07:49.769Z,61.54
2022-08-11T02:08:33.788Z,61.49
2022-08-11T02:09:18.891Z,61.82
2022-08-11T02:10:22.428Z,62.01
2022-08-11T02:11:35.219Z,63.02
2022-08-11T02:12:37.751Z,63.21
2022-08-11T02:13:46.121Z,64.08
2022-08-11T02:14:53.615Z,64.35
2022-08-11T02:15:42.094Z,64.89
2022-08-11T02:16:19.889Z,64.80
2022-08-11T02:17:09.521Z,64.55
2022-08-11T02:17:59.427Z,64.64
2022-08-11T02:18:59.053Z,64.91
2022-08-11T02:20:03.856Z,64.99
2022-08-11T02:21:04.049Z,65.21
2022-08-11T02:22:37.796Z,64.87
2022-08-11T02:24:06.220Z,64.88
2022-08-11T02:25:04.439Z,65.55
2022-08-11T02:26:05.885Z,65.04
2022-08-11T02:26:44.085Z,65.01
2022-08-11T02:27:20.745Z,65.11
2022-08-11T02:28:06.049Z,65.13
2022-08-11T02:29:05.744Z,65.22
2022-08-11T02:29:56.711Z,65.25
2022-08-11T02:30:37.209Z,65.85
2022-08-11T02:32:24.895Z,65.24
2022-08-11T02:33:01.278Z,65.19
2022-08-11T02:33:36.823Z,65.24
2022-08-11T02:34:29.668Z,64.96
2022-08-11T02:35:04.055Z,64.93
2022-08-11T02:35:47.800Z,64.94
2022-08-11T02:36:32.329Z,64.64
2022-08-11T02:37:45.245Z,64.68
2022-08-11T02:38:24.943Z,64.75
2022-08-11T02:39:18.208Z,64.70
2022-08-11T02:39:53.351Z,64.35
2022-08-11T02:40:32.503Z,64.18
2022-08-11T02:41:34.990Z,64.29
2022-08-11T02:42:32.929Z,63.90
2022-08-11T02:43:32.437Z,63.80
2022-08-11T02:44:03.951Z,63.75
2022-08-11T02:44:58.588Z,63.74
2022-08-11T02:45:49.030Z,63.76
2022-08-11T02:46:28.952Z,63.73
2022-08-11T02:47:38.329Z,63.60
2022-08-11T02:48:47.661Z,63.94
2022-08-11T02:49:59.937Z,64.24
2022-08-11T02:51:14.828Z,64.18
2022-08-11T02:52:04.008Z,64.98
2022-08-11T02:52:52.369Z,64.97
2022-08-11T02:53:44.446Z,64.73
2022-08-11T02:54:41.620Z,64.84
2022-08-11T02:55:56.101Z,64.81
2022-08-11T02:56:38.708Z,64.45
2022-08-11T02:57:27.870Z,64.51
2022-08-11T02:58:29.407Z,64.59
2022-08-11T02:59:41.203Z,64.73
2022-08-11T03:00:16.106Z,64.12
2022-08-11T03:00:57.166Z,63.94
2022-08-11T03:01:41.119Z,63.93
2022-08-11T03:02:38.293Z,64.05
2022-08-11T03:03:29.691Z,64.48
2022-08-11T03:04:37.717Z,64.23
2022-08-11T03:05:13.807Z,64.30
2022-08-11T03:05:54.252Z,64.28
2022-08-11T03:06:49.824Z,64.20
2022-08-11T03:07:55.168Z,64.32
2022-08-11T03:08:36.409Z,64.48
2022-08-11T03:09:27.269Z,64.63
2022-08-11T03:10:10.025Z,64.45
2022-08-11T03:11:15.502Z,63.96
2022-08-11T03:12:05.397Z,64.28
2022-08-11T03:13:06.830Z,64.22
2022-08-11T03:14:13.394Z,64.25
2022-08-11T03:15:25.516Z,64.22
2022-08-11T03:16:47.210Z,63.96
2022-08-11T03:17:38.070Z,64.02
2022-08-11T03:18:28.747Z,63.69
2022-08-11T03:19:28.009Z,63.59
2022-08-11T03:20:12.466Z,63.67
2022-08-11T03:20:57.751Z,63.49
2022-08-11T03:22:01.677Z,63.32
2022-08-11T03:22:40.692Z,63.31
2022-08-11T03:23:29.682Z,63.36
2022-08-11T03:24:14.162Z,63.36
2022-08-11T03:24:57.687Z,63.38
2022-08-11T03:25:52.589Z,63.34
2022-08-11T03:26:30.750Z,63.23
2022-08-11T03:27:12.162Z,63.43
2022-08-11T03:27:53.251Z,63.48
2022-08-11T03:28:34.144Z,63.54
2022-08-11T03:29:28.241Z,63.84
2022-08-11T03:30:10.943Z,63.63
2022-08-11T03:30:51.719Z,63.44
2022-08-11T03:32:06.179Z,63.25
2022-08-11T03:33:13.002Z,63.17
2022-08-11T03:34:06.641Z,63.16
2022-08-11T03:34:43.969Z,63.08
2022-08-11T03:35:21.600Z,63.03
2022-08-11T03:36:05.293Z,63.01
2022-08-11T03:36:57.595Z,62.80
2022-08-11T03:37:58.354Z,62.73
2022-08-11T03:38:45.416Z,62.60
2022-08-11T03:39:56.789Z,62.64
2022-08-11T03:40:59.663Z,62.62
2022-08-11T03:42:04.090Z,62.57
2022-08-11T03:42:36.292Z,62.49
2022-08-11T03:43:29.771Z,62.52
2022-08-11T03:44:10.043Z,62.49
2022-08-11T03:44:56.698Z,62.90
2022-08-11T03:45:43.566Z,62.92
2022-08-11T03:46:27.522Z,62.66
2022-08-11T03:47:13.924Z,62.64
2022-08-11T03:48:13.961Z,62.63
2022-08-11T03:48:51.491Z,62.57
2022-08-11T03:49:28.276Z,62.46
2022-08-11T03:50:24.738Z,62.57
2022-08-11T03:51:25.319Z,62.78
2022-08-11T03:52:28.622Z,62.90
2022-08-11T03:53:12.393Z,62.75
2022-08-11T03:54:22.378Z,62.91
2022-08-11T03:55:10.824Z,63.49
2022-08-11T03:55:44.953Z,63.32
2022-08-11T03:56:42.224Z,63.36
2022-08-11T03:57:47.472Z,63.55
2022-08-11T03:58:32.097Z,63.69
2022-08-11T03:59:23.745Z,63.96
2022-08-11T04:00:29.089Z,64.24
2022-08-11T04:01:21.861Z,64.51
2022-08-11T04:02:24.186Z,64.44
2022-08-11T04:03:08.153Z,64.48
2022-08-11T04:03:58.496Z,64.67
2022-08-11T04:04:58.033Z,64.16
2022-08-11T04:06:02.397Z,64.25
2022-08-11T04:06:57.040Z,64.20
2022-08-11T04:08:05.923Z,64.29
2022-08-11T04:09:16.613Z,63.85
2022-08-11T04:10:10.142Z,64.19
2022-08-11T04:10:58.303Z,64.25
2022-08-11T04:11:57.606Z,63.84
2022-08-11T04:12:52.655Z,63.69
2022-08-11T04:13:52.353Z,64.16
2022-08-11T04:15:22.194Z,62.98
2022-08-11T04:16:10.952Z,62.61
2022-08-11T04:17:13.698Z,62.56
2022-08-11T04:18:03.453Z,62.51
2022-08-11T04:19:13.266Z,62.08
2022-08-11T04:20:09.765Z,61.83
2022-08-11T04:20:41.364Z,61.66
2022-08-11T04:21:34.428Z,61.24
2022-08-11T04:22:21.270Z,61.27
2022-08-11T04:24:13.054Z,61.43
2022-08-11T04:24:38.541Z,60.68
2022-08-11T04:25:28.416Z,60.12
2022-08-11T04:26:18.514Z,60.13
2022-08-11T04:27:19.949Z,60.04
2022-08-11T04:28:04.202Z,60.17
2022-08-11T04:28:55.560Z,60.19
2022-08-11T04:30:03.650Z,60.83
2022-08-11T04:31:10.916Z,60.10
2022-08-11T04:32:20.932Z,59.97
2022-08-11T04:32:52.453Z,60.13
2022-08-11T04:33:38.801Z,60.01
2022-08-11T04:34:55.109Z,60.24
2022-08-11T04:35:56.685Z,59.88
2022-08-11T04:37:18.047Z,59.65
2022-08-11T04:37:55.125Z,59.64
2022-08-11T04:39:04.987Z,59.67
2022-08-11T04:40:04.244Z,59.49
2022-08-11T04:40:41.609Z,59.28
2022-08-11T04:42:09.433Z,59.93
2022-08-11T04:43:21.251Z,58.68
2022-08-11T04:44:24.131Z,58.17
2022-08-11T04:45:36.817Z,58.37
2022-08-11T04:46:23.353Z,58.34
2022-08-11T04:48:01.792Z,58.27
2022-08-11T04:49:33.835Z,58.29
2022-08-11T04:50:39.377Z,58.80
2022-08-11T04:51:50.878Z,58.55
2022-08-11T04:53:12.683Z,58.28
2022-08-11T04:54:19.168Z,58.03
2022-08-11T04:55:27.517Z,58.26
2022-08-11T04:56:20.778Z,57.87
2022-08-11T04:57:20.054Z,58.07
2022-08-11T04:58:20.181Z,58.15
2022-08-11T04:59:48.364Z,57.91
2022-08-11T05:00:38.490Z,57.87
2022-08-11T05:01:55.036Z,57.90
2022-08-11T05:02:41.329Z,57.75
2022-08-11T05:03:54.551Z,57.26
2022-08-11T05:05:14.869Z,57.63
2022-08-11T05:06:10.091Z,57.02
2022-08-11T05:07:10.129Z,57.09
2022-08-11T05:08:09.188Z,56.61
2022-08-11T05:08:59.457Z,56.64
2022-08-11T05:10:12.870Z,56.97
2022-08-11T05:10:57.969Z,57.02
2022-08-11T05:11:57.994Z,57.18
2022-08-11T05:12:46.483Z,57.28
2022-08-11T05:14:09.173Z,57.11
2022-08-11T05:15:10.835Z,56.85
2022-08-11T05:16:07.801Z,57.05
2022-08-11T05:17:09.007Z,56.97
2022-08-11T05:18:25.996Z,57.13
2022-08-11T05:19:17.685Z,56.71
2022-08-11T05:20:08.021Z,56.97
2022-08-11T05:21:05.482Z,56.49
2022-08-11T05:21:58.487Z,56.19
2022-08-11T05:22:49.929Z,56.10
2022-08-11T05:23:44.791Z,55.93
2022-08-11T05:24:40.832Z,56.05
2022-08-11T05:26:44.188Z,56.39
2022-08-11T05:26:49.898Z,56.66
2022-08-11T05:27:52.064Z,56.22
2022-08-11T05:28:55.352Z,56.01
2022-08-11T05:29:57.245Z,56.14
2022-08-11T05:30:49.127Z,56.60
2022-08-11T05:31:45.003Z,56.29
2022-08-11T05:32:35.801Z,56.12
2022-08-11T05:33:30.288Z,56.13
2022-08-11T05:34:30.802Z,55.92
2022-08-11T05:35:05.331Z,56.34
2022-08-11T05:36:00.080Z,56.37
2022-08-11T05:36:50.596Z,55.62
2022-08-11T05:37:34.521Z,55.67
2022-08-11T05:38:32.457Z,55.94
2022-08-11T05:39:36.524Z,55.40
2022-08-11T05:40:29.108Z,55.84
2022-08-11T05:41:20.053Z,55.64
2022-08-11T05:42:20.935Z,55.83
2022-08-11T05:43:30.122Z,56.04
2022-08-11T05:44:22.436Z,55.89
2022-08-11T05:45:15.823Z,54.64
2022-08-11T05:46:20.184Z,55.03
2022-08-11T05:47:11.040Z,55.20
2022-08-11T05:48:06.902Z,54.06
2022-08-11T05:48:59.702Z,54.20
2022-08-11T05:49:52.561Z,54.37
2022-08-11T05:50:43.370Z,54.26
2022-08-11T05:51:35.955Z,53.27
2022-08-11T05:52:41.632Z,53.61
2022-08-11T05:53:45.669Z,53.74
2022-08-11T05:54:36.984Z,52.79
2022-08-11T05:55:29.788Z,53.21
2022-08-11T05:56:21.374Z,54.57
2022-08-11T05:56:55.873Z,52.80
2022-08-11T05:57:39.685Z,52.75
2022-08-11T05:58:22.888Z,52.97
2022-08-11T05:58:56.489Z,52.46
2022-08-11T05:59:29.573Z,53.00
2022-08-11T06:00:05.540Z,52.96
2022-08-11T06:00:46.350Z,53.37
2022-08-11T06:01:24.014Z,53.00
2022-08-11T06:02:07.517Z,53.42
2022-08-11T06:02:57.162Z,52.49
2022-08-11T06:03:30.180Z,51.99
2022-08-11T06:04:16.774Z,51.66
2022-08-11T06:04:57.135Z,51.27
2022-08-11T06:05:38.423Z,51.99
2022-08-11T06:06:15.478Z,50.95
2022-08-11T06:06:51.262Z,50.69
2022-08-11T06:07:28.262Z,50.68
2022-08-11T06:08:00.919Z,51.37
2022-08-11T06:08:37.109Z,50.71
2022-08-11T06:09:09.605Z,50.81
2022-08-11T06:09:49.652Z,51.28
2022-08-11T06:10:33.441Z,50.78
2022-08-11T06:11:06.268Z,50.44
2022-08-11T06:11:44.916Z,50.48
2022-08-11T06:12:25.605Z,50.63
2022-08-11T06:13:01.109Z,50.52
2022-08-11T06:13:33.854Z,50.24
2022-08-11T06:14:07.351Z,50.48
2022-08-11T06:14:44.541Z,49.71
2022-08-11T06:15:16.148Z,49.67
2022-08-11T06:15:51.994Z,49.91
2022-08-11T06:16:28.219Z,49.42
2022-08-11T06:17:03.098Z,49.45
2022-08-11T06:17:45.635Z,49.53
2022-08-11T06:18:18.334Z,49.81
2022-08-11T06:18:50.164Z,49.84
2022-08-11T06:19:23.499Z,49.77
2022-08-11T06:20:07.559Z,49.62
2022-08-11T06:20:54.021Z,50.41
2022-08-11T06:21:26.264Z,50.15
2022-08-11T06:21:59.703Z,49.63
2022-08-11T06:22:32.808Z,47.75
2022-08-11T06:23:06.814Z,48.35
2022-08-11T06:23:42.578Z,48.48
2022-08-11T06:24:15.817Z,49.70
2022-08-11T06:24:57.491Z,48.90
2022-08-11T06:25:33.432Z,48.52
2022-08-11T06:26:12.794Z,50.54
2022-08-11T06:27:11.327Z,48.86
2022-08-11T06:27:45.647Z,52.34
2022-08-11T06:28:22.649Z,51.16
2022-08-11T06:28:59.383Z,49.65
2022-08-11T06:29:37.974Z,49.08
2022-08-11T06:30:35.158Z,47.74
2022-08-11T06:31:20.303Z,47.65
2022-08-11T06:32:00.797Z,47.13
2022-08-11T06:32:36.084Z,47.91
2022-08-11T06:33:21.757Z,47.82
2022-08-11T06:34:07.895Z,47.12
2022-08-11T06:35:01.051Z,49.94
2022-08-11T06:36:02.888Z,48.02
2022-08-11T06:37:00.457Z,47.42
2022-08-11T06:37:45.373Z,47.89
2022-08-11T06:38:20.570Z,46.37
2022-08-11T06:38:57.798Z,48.09
2022-08-11T06:39:45.163Z,46.75
2022-08-11T06:40:35.685Z,46.99
2022-08-11T06:41:32.524Z,46.12
2022-08-11T06:42:09.328Z,46.51
2022-08-11T06:43:02.173Z,46.42
2022-08-11T06:43:55.339Z,46.65
2022-08-11T06:44:54.486Z,46.56
2022-08-11T06:45:47.646Z,47.44
2022-08-11T06:46:38.881Z,47.43
2022-08-11T06:47:13.296Z,47.34
2022-08-11T06:47:49.359Z,47.41
2022-08-11T06:48:25.409Z,47.87
2022-08-11T06:48:58.187Z,47.70
2022-08-11T06:49:55.537Z,48.13
2022-08-11T06:50:47.989Z,47.86
2022-08-11T06:51:20.706Z,48.07
2022-08-11T06:51:52.548Z,48.11
2022-08-11T06:52:38.291Z,49.36
2022-08-11T06:53:12.179Z,49.16
2022-08-11T06:54:03.589Z,46.46
2022-08-11T06:55:05.533Z,46.43
2022-08-11T06:55:59.895Z,46.36
2022-08-11T06:57:06.724Z,45.49
2022-08-11T06:58:06.429Z,44.94
2022-08-11T06:58:59.746Z,45.28
2022-08-11T06:59:53.021Z,44.31
2022-08-11T07:00:28.716Z,44.65
2022-08-11T07:01:04.788Z,45.02
2022-08-11T07:01:51.595Z,44.96
2022-08-11T07:02:36.393Z,44.98
2022-08-11T07:03:11.515Z,44.70
2022-08-11T07:03:54.606Z,44.96
2022-08-11T07:04:43.194Z,44.41
2022-08-11T07:05:23.287Z,44.49
2022-08-11T07:06:19.469Z,45.23
2022-08-11T07:07:48.339Z,44.84
2022-08-11T07:08:57.094Z,45.52
2022-08-11T07:10:11.450Z,44.03
2022-08-11T07:11:32.431Z,44.39
2022-08-11T07:12:25.137Z,44.21
2022-08-11T07:13:44.142Z,44.38
2022-08-11T07:14:33.877Z,44.74
2022-08-11T07:16:10.584Z,43.11
2022-08-11T07:16:28.773Z,43.23
2022-08-11T07:17:01.345Z,43.07
2022-08-11T07:17:37.996Z,43.47
2022-08-11T07:19:10.662Z,42.81
2022-08-11T07:20:14.587Z,42.99
2022-08-11T07:21:04.903Z,43.48
2022-08-11T07:22:16.325Z,43.25
2022-08-11T07:23:20.601Z,43.83
2022-08-11T07:24:14.300Z,42.91
2022-08-11T07:25:21.119Z,42.03
2022-08-11T07:26:20.215Z,42.39
2022-08-11T07:27:14.083Z,43.49
2022-08-11T07:28:15.205Z,42.64
2022-08-11T07:29:01.798Z,41.90
2022-08-11T07:29:53.814Z,41.66
2022-08-11T07:30:26.721Z,41.45
2022-08-11T07:31:04.497Z,40.79
2022-08-11T07:31:42.144Z,40.70
2022-08-11T07:32:28.357Z,41.33
2022-08-11T07:33:03.021Z,42.09
2022-08-11T07:34:10.983Z,41.50
2022-08-11T07:34:50.840Z,41.63
2022-08-11T07:35:31.464Z,41.56
2022-08-11T07:36:05.285Z,41.36
2022-08-11T07:36:46.049Z,41.16
2022-08-11T07:37:20.479Z,41.00
2022-08-11T07:38:07.971Z,41.20
2022-08-11T07:38:50.864Z,41.18
2022-08-11T07:39:25.692Z,39.94
2022-08-11T07:39:59.855Z,40.14
2022-08-11T07:40:32.713Z,39.73
2022-08-11T07:41:04.461Z,40.77
2022-08-11T07:41:40.180Z,40.93
2022-08-11T07:42:15.076Z,40.77
2022-08-11T07:42:47.067Z,39.26
2022-08-11T07:43:19.017Z,39.99
2022-08-11T07:43:53.958Z,40.12
2022-08-11T07:44:35.097Z,40.27
2022-08-11T07:45:37.767Z,40.11
2022-08-11T07:46:37.166Z,40.76
2022-08-11T07:47:29.418Z,40.23
2022-08-11T07:48:20.769Z,41.23
2022-08-11T07:49:11.881Z,39.76
2022-08-11T07:50:05.500Z,40.78
2022-08-11T07:51:00.253Z,41.42
2022-08-11T07:51:50.443Z,39.57
2022-08-11T07:52:37.168Z,40.11
2022-08-11T07:53:10.018Z,39.77
2022-08-11T07:54:03.053Z,39.84
2022-08-11T07:54:37.070Z,39.29
2022-08-11T07:55:17.152Z,40.18
2022-08-11T07:55:51.855Z,39.03
2022-08-11T07:56:54.232Z,38.74
2022-08-11T07:58:05.568Z,38.66
2022-08-11T07:58:52.266Z,38.40
2022-08-11T08:00:03.702Z,38.74
2022-08-11T08:01:10.743Z,38.13
2022-08-11T08:02:12.562Z,38.45
2022-08-11T08:03:03.237Z,38.31
2022-08-11T08:03:53.884Z,38.71
2022-08-11T08:04:47.375Z,38.21
2022-08-11T08:05:38.367Z,39.36
2022-08-11T08:06:35.995Z,40.00
2022-08-11T08:07:27.201Z,40.13
2022-08-11T08:09:25.893Z,41.27
2022-08-11T08:10:16.305Z,41.31
2022-08-11T08:11:06.794Z,41.50
2022-08-11T08:11:57.679Z,40.67
2022-08-11T08:12:49.186Z,41.33
2022-08-11T08:13:39.607Z,38.93
2022-08-11T08:14:30.601Z,39.03
2022-08-11T08:15:28.172Z,37.61
2022-08-11T08:16:18.494Z,36.95
2022-08-11T08:17:10.890Z,37.43
2022-08-11T08:18:08.357Z,37.54
2022-08-11T08:18:42.407Z,37.37
2022-08-11T08:19:15.916Z,38.05
2022-08-11T08:19:48.781Z,38.09
2022-08-11T08:20:23.234Z,38.56
2022-08-11T08:21:11.847Z,38.99
2022-08-11T08:21:45.420Z,39.27
2022-08-11T08:22:38.190Z,38.86
2022-08-11T08:23:11.910Z,38.24
2022-08-11T08:23:47.020Z,37.48
2022-08-11T08:24:25.694Z,37.14
2022-08-11T08:24:57.502Z,37.05
2022-08-11T08:25:35.137Z,37.91
2022-08-11T08:26:26.469Z,37.08
2022-08-11T08:27:01.170Z,37.34
2022-08-11T08:27:34.685Z,36.61
2022-08-11T08:28:09.461Z,36.31
2022-08-11T08:28:41.128Z,36.23
2022-08-11T08:29:34.122Z,35.44
2022-08-11T08:30:25.592Z,35.36
2022-08-11T08:30:58.498Z,34.40
2022-08-11T08:31:34.907Z,34.76
2022-08-11T08:32:27.999Z,36.10
2022-08-11T08:33:01.108Z,36.35
2022-08-11T08:33:33.202Z,36.45
2022-08-11T08:34:04.894Z,37.45
2022-08-11T08:34:38.262Z,36.52
2022-08-11T08:35:12.967Z,36.17
2022-08-11T08:35:55.930Z,36.98
2022-08-11T08:36:28.242Z,37.52
2022-08-11T08:37:00.593Z,38.18
2022-08-11T08:37:46.731Z,38.28
2022-08-11T08:38:20.002Z,37.69
2022-08-11T08:38:56.606Z,37.64
2022-08-11T08:39:28.512Z,37.78
2022-08-11T08:40:00.212Z,36.11
2022-08-11T08:40:31.947Z,35.99
2022-08-11T08:41:04.149Z,35.37
2022-08-11T08:41:38.595Z,34.76
2022-08-11T08:42:13.234Z,34.71
2022-08-11T08:42:56.945Z,34.23
2022-08-11T08:43:29.281Z,34.32
2022-08-11T08:44:35.184Z,32.96
2022-08-11T08:45:07.342Z,32.34
2022-08-11T08:45:45.879Z,32.56
2022-08-11T08:46:22.126Z,31.96
2022-08-11T08:46:59.204Z,31.68
2022-08-11T08:47:41.552Z,32.26
2022-08-11T08:48:16.748Z,32.31
2022-08-11T08:48:49.558Z,31.87
2022-08-11T08:49:29.357Z,32.16
2022-08-11T08:50:05.652Z,32.01
2022-08-11T08:51:01.857Z,32.17
2022-08-11T08:52:03.739Z,32.38
2022-08-11T08:53:10.532Z,32.68
2022-08-11T08:53:58.638Z,33.16
2022-08-11T08:54:42.097Z,32.01
2022-08-11T08:55:19.807Z,32.59
2022-08-11T08:55:52.876Z,33.27
2022-08-11T08:56:28.353Z,32.62
2022-08-11T08:57:03.036Z,32.81
2022-08-11T08:57:39.728Z,32.94
2022-08-11T08:58:12.833Z,32.43
2022-08-11T08:58:48.143Z,32.96
2022-08-11T08:59:47.707Z,32.26
2022-08-11T09:00:30.583Z,33.18
2022-08-11T09:01:02.926Z,32.47
2022-08-11T09:01:43.805Z,32.33
2022-08-11T09:02:17.310Z,31.80
2022-08-11T09:02:49.536Z,30.32
2022-08-11T09:04:04.668Z,30.22
2022-08-11T09:04:21.247Z,30.13
2022-08-11T09:04:53.209Z,29.43
2022-08-11T09:05:27.296Z,28.85
2022-08-11T09:05:58.970Z,29.00
2022-08-11T09:06:32.988Z,28.01
2022-08-11T09:07:12.355Z,27.83
2022-08-11T09:07:47.728Z,26.97
2022-08-11T09:08:21.700Z,27.38
2022-08-11T09:08:55.183Z,27.69
2022-08-11T09:09:27.768Z,27.95
2022-08-11T09:10:02.266Z,28.12
2022-08-11T09:10:35.107Z,28.85
2022-08-11T09:11:25.877Z,27.83
2022-08-11T09:11:58.228Z,27.36
2022-08-11T09:12:36.330Z,27.27
2022-08-11T09:13:10.598Z,27.23
2022-08-11T09:13:44.525Z,26.99
2022-08-11T09:14:47.369Z,27.17
2022-08-11T09:15:20.060Z,27.96
2022-08-11T09:15:56.179Z,27.41
2022-08-11T09:16:28.544Z,27.40
2022-08-11T09:17:01.020Z,27.01
2022-08-11T09:17:45.842Z,27.53
2022-08-11T09:18:18.221Z,26.66
2022-08-11T09:18:51.710Z,26.19
2022-08-11T09:19:24.160Z,25.55
2022-08-11T09:20:01.586Z,25.54
2022-08-11T09:20:35.633Z,26.07
2022-08-11T09:21:07.952Z,26.74
2022-08-11T09:21:49.603Z,26.09
2022-08-11T09:22:40.608Z,25.91
2022-08-11T09:24:40.937Z,26.58
2022-08-11T09:25:36.350Z,27.41
2022-08-11T09:26:30.395Z,27.28
2022-08-11T09:27:06.853Z,26.94
2022-08-11T09:27:40.012Z,26.32
2022-08-11T09:28:23.685Z,28.65
2022-08-11T09:28:55.664Z,29.54
2022-08-11T09:29:29.194Z,30.24
2022-08-11T09:30:01.245Z,30.33
2022-08-11T09:30:33.028Z,28.82
2022-08-11T09:31:06.887Z,28.57
2022-08-11T09:31:40.463Z,28.53
2022-08-11T09:32:12.708Z,27.77
2022-08-11T09:32:44.564Z,27.20
2022-08-11T09:33:17.222Z,26.47
2022-08-11T09:33:52.215Z,26.98
2022-08-11T09:34:26.376Z,26.55
2022-08-11T09:34:58.521Z,27.17
2022-08-11T09:35:33.020Z,26.27
2022-08-11T09:36:25.294Z,26.25
2022-08-11T09:37:29.040Z,27.36
2022-08-11T09:38:31.904Z,26.93
2022-08-11T09:39:24.841Z,27.14
2022-08-11T09:40:15.869Z,25.83
2022-08-11T09:40:52.911Z,27.02
2022-08-11T09:41:28.721Z,26.17
2022-08-11T09:42:23.452Z,25.75
2022-08-11T09:43:20.130Z,26.06
2022-08-11T09:44:10.625Z,26.06
2022-08-11T09:44:49.465Z,26.24
2022-08-11T09:45:21.765Z,25.81
2022-08-11T09:45:55.661Z,25.75
2022-08-11T09:46:28.757Z,26.03
2022-08-11T09:47:01.009Z,26.14
2022-08-11T09:47:35.313Z,27.00
2022-08-11T09:48:07.921Z,28.43
2022-08-11T09:48:42.650Z,28.54
2022-08-11T09:49:14.449Z,29.81
2022-08-11T09:49:49.071Z,31.07
2022-08-11T09:50:20.953Z,30.64
2022-08-11T09:50:56.836Z,31.10
2022-08-11T09:51:31.889Z,31.88
2022-08-11T09:52:06.670Z,32.49
2022-08-11T09:52:52.386Z,33.60
2022-08-11T09:53:40.714Z,32.81
2022-08-11T09:54:13.475Z,32.80
2022-08-11T09:54:48.687Z,32.68
2022-08-11T09:55:20.657Z,31.74
2022-08-11T09:55:53.150Z,31.61
2022-08-11T09:56:43.705Z,32.02
2022-08-11T09:57:38.298Z,32.56
2022-08-11T09:58:35.166Z,32.84
2022-08-11T09:59:11.078Z,32.89
2022-08-11T09:59:42.745Z,33.34
2022-08-11T10:00:15.290Z,31.81
2022-08-11T10:00:49.426Z,33.32
2022-08-11T10:01:29.349Z,32.96
2022-08-11T10:02:05.203Z,32.18
2022-08-11T10:02:43.471Z,33.11
2022-08-11T10:03:28.137Z,32.40
2022-08-11T10:04:38.226Z,32.92
2022-08-11T10:05:30.231Z,34.03
2022-08-11T10:06:33.103Z,34.37
2022-08-11T10:07:09.751Z,33.45
2022-08-11T10:07:50.277Z,32.64
2022-08-11T10:08:27.271Z,32.23
2022-08-11T10:08:58.953Z,32.83
2022-08-11T10:09:56.817Z,33.73
2022-08-11T10:10:29.613Z,33.31
2022-08-11T10:11:01.814Z,34.05
2022-08-11T10:11:36.485Z,34.12
2022-08-11T10:12:11.729Z,34.63
2022-08-11T10:14:12.454Z,35.02
2022-08-11T10:14:33.905Z,34.63
2022-08-11T10:15:30.731Z,36.58
2022-08-11T10:16:15.626Z,35.55
2022-08-11T10:16:49.387Z,35.71
2022-08-11T10:17:22.877Z,35.76
2022-08-11T10:18:18.707Z,35.83
2022-08-11T10:18:54.473Z,36.07
2022-08-11T10:19:26.808Z,34.46
2022-08-11T10:20:04.345Z,34.29
2022-08-11T10:20:39.145Z,34.30
2022-08-11T10:21:18.686Z,33.33
2022-08-11T10:22:13.529Z,32.78
2022-08-11T10:23:03.979Z,34.70
2022-08-11T10:24:07.042Z,34.06
2022-08-11T10:24:59.859Z,30.49
2022-08-11T10:25:50.010Z,28.14
2022-08-11T10:26:48.323Z,27.45
2022-08-11T10:27:20.198Z,26.87
2022-08-11T10:28:28.200Z,26.47
2022-08-11T10:29:11.652Z,26.50
2022-08-11T10:29:59.927Z,26.95
2022-08-11T10:30:50.294Z,26.40
2022-08-11T10:31:57.757Z,25.28
2022-08-11T10:32:58.328Z,25.83
2022-08-11T10:33:59.438Z,25.25
2022-08-11T10:34:31.595Z,25.99
2022-08-11T10:35:07.216Z,26.06